Terrington Saint John, United Kingdom
Current Conditions -  °F | °C
As of 7:50 AM on Friday 19 Dec 2014 (Local Time) from EGYM Reporting Station
Clear Clear  
Wind Chill: 37°   Ceiling: Unl
Heat Index: 45°   Visibility: 6mi
Dew Point: 37°   Wind: 17mph
Humidity: 76%   Direction: 280°W
Pressure: 29.8"   Gusts: NA
Location:  52.71°N, 0.27°E
Report Text: EGYM 190750Z AUTO 28015KT 9999 NCD 07/03 Q1009
Loading
Personal Weather Stations






























Interactive Weather Map New forecast layout! Learn more

10-Day Weather Forecast

Advertisements
Track Severe Weather on mobile